createdAt,value
2023-12-05T00:01:00.907Z,2.61
2023-12-05T00:03:28.246Z,2.67
2023-12-05T00:05:55.809Z,2.66
2023-12-05T00:08:23.189Z,2.65
2023-12-05T00:10:50.275Z,2.67
2023-12-05T00:13:17.424Z,2.43
2023-12-05T00:15:48.299Z,2.50
2023-12-05T00:18:15.594Z,2.58
2023-12-05T00:20:43.779Z,2.44
2023-12-05T00:23:11.021Z,2.43
2023-12-05T00:25:41.606Z,2.52
2023-12-05T00:28:08.726Z,2.42
2023-12-05T00:30:35.937Z,2.44
2023-12-05T00:33:06.519Z,2.27
2023-12-05T00:35:33.999Z,2.28
2023-12-05T00:38:01.024Z,2.43
2023-12-05T00:40:31.878Z,2.47
2023-12-05T00:43:01.822Z,2.57
2023-12-05T00:45:32.760Z,2.48
2023-12-05T00:47:59.987Z,2.41
2023-12-05T00:50:33.847Z,2.40
2023-12-05T00:53:06.375Z,2.44
2023-12-05T00:55:38.970Z,2.43
2023-12-05T00:58:06.175Z,2.39
2023-12-05T01:00:34.446Z,2.41
2023-12-05T01:03:01.794Z,2.61
2023-12-05T01:05:34.090Z,2.56
2023-12-05T01:08:01.204Z,2.53
2023-12-05T01:10:29.469Z,2.47
2023-12-05T01:12:56.653Z,2.38
2023-12-05T01:15:24.591Z,2.41
2023-12-05T01:17:54.287Z,2.45
2023-12-05T01:20:23.119Z,2.42
2023-12-05T01:22:50.272Z,2.46
2023-12-05T01:25:17.412Z,2.58
2023-12-05T01:27:44.424Z,2.57
2023-12-05T01:30:15.164Z,2.43
2023-12-05T01:32:42.187Z,2.40
2023-12-05T01:35:09.334Z,2.50
2023-12-05T01:37:42.688Z,2.53
2023-12-05T01:40:14.929Z,2.61
2023-12-05T01:42:42.087Z,2.51
2023-12-05T01:45:15.985Z,2.57
2023-12-05T01:47:45.009Z,2.60
2023-12-05T01:50:18.029Z,2.59
2023-12-05T01:52:52.936Z,2.54
2023-12-05T01:55:21.089Z,2.50
2023-12-05T01:57:49.159Z,2.61
2023-12-05T02:00:17.635Z,2.66
2023-12-05T02:02:44.962Z,2.55
2023-12-05T02:05:12.895Z,2.61
2023-12-05T02:07:40.308Z,2.52
2023-12-05T02:10:08.076Z,2.64
2023-12-05T02:12:35.330Z,2.63
2023-12-05T02:15:02.465Z,2.67
2023-12-05T02:17:40.017Z,2.61
2023-12-05T02:20:22.305Z,2.63
2023-12-05T02:23:03.420Z,2.56
2023-12-05T02:25:50.298Z,2.50
2023-12-05T02:28:18.836Z,2.55
2023-12-05T02:30:49.192Z,2.58
2023-12-05T02:33:16.398Z,2.52
2023-12-05T02:35:44.173Z,2.50
2023-12-05T02:38:19.093Z,2.58
2023-12-05T02:40:57.705Z,2.54
2023-12-05T02:43:57.130Z,2.50
2023-12-05T02:46:24.940Z,2.49
2023-12-05T02:48:53.144Z,2.58
2023-12-05T02:51:22.039Z,2.56
2023-12-05T02:53:49.321Z,2.63
2023-12-05T02:56:17.353Z,2.55
2023-12-05T02:58:44.673Z,2.53
2023-12-05T03:01:15.848Z,2.49
2023-12-05T03:03:43.096Z,2.47
2023-12-05T03:06:10.402Z,2.54
2023-12-05T03:08:37.557Z,2.62
2023-12-05T03:11:09.574Z,2.52
2023-12-05T03:13:41.642Z,2.44
2023-12-05T03:16:09.753Z,2.52
2023-12-05T03:18:37.203Z,2.57
2023-12-05T03:21:05.650Z,2.57
2023-12-05T03:23:34.176Z,2.50
2023-12-05T03:26:03.416Z,2.54
2023-12-05T03:28:30.461Z,2.54
2023-12-05T03:30:59.604Z,2.66
2023-12-05T03:33:26.790Z,2.66
2023-12-05T03:35:54.052Z,2.66
2023-12-05T03:38:21.077Z,2.66
2023-12-05T03:40:53.568Z,2.59
2023-12-05T03:43:20.778Z,2.57
2023-12-05T03:45:47.886Z,2.49
2023-12-05T03:48:20.373Z,2.63
2023-12-05T03:50:48.838Z,2.69
2023-12-05T03:53:15.914Z,2.61
2023-12-05T03:55:43.021Z,2.61
2023-12-05T03:58:15.814Z,2.56
2023-12-05T04:00:42.828Z,2.59
2023-12-05T04:03:10.026Z,2.59
2023-12-05T04:05:40.381Z,2.57
2023-12-05T04:08:08.519Z,2.71
2023-12-05T04:10:35.798Z,2.60
2023-12-05T04:13:03.256Z,2.66
2023-12-05T04:15:30.600Z,2.74
2023-12-05T04:17:57.963Z,2.68
2023-12-05T04:20:29.270Z,2.66
2023-12-05T04:22:57.974Z,2.71
2023-12-05T04:25:25.254Z,2.70
2023-12-05T04:27:52.461Z,2.82
2023-12-05T04:30:20.291Z,2.69
2023-12-05T04:32:50.446Z,2.68
2023-12-05T04:35:17.620Z,2.75
2023-12-05T04:37:45.050Z,2.70
2023-12-05T04:40:20.899Z,2.76
2023-12-05T04:42:55.665Z,2.91
2023-12-05T04:45:31.403Z,2.80
2023-12-05T04:47:58.876Z,2.90
2023-12-05T04:50:25.961Z,2.85
2023-12-05T04:52:58.606Z,2.84
2023-12-05T04:55:25.536Z,2.87
2023-12-05T04:58:01.546Z,2.75
2023-12-05T05:00:28.924Z,2.77
2023-12-05T05:02:56.034Z,2.85
2023-12-05T05:05:23.368Z,2.81
2023-12-05T05:07:50.773Z,2.82
2023-12-05T05:10:17.929Z,2.90
2023-12-05T05:12:44.996Z,2.82
2023-12-05T05:15:12.603Z,2.82
2023-12-05T05:17:48.214Z,2.99
2023-12-05T05:20:21.763Z,2.91
2023-12-05T05:22:51.128Z,2.95
2023-12-05T05:25:20.077Z,2.77
2023-12-05T05:27:47.458Z,2.75
2023-12-05T05:30:18.091Z,2.77
2023-12-05T05:32:46.219Z,2.72
2023-12-05T05:35:13.362Z,2.78
2023-12-05T05:37:42.509Z,2.81
2023-12-05T05:40:18.562Z,2.90
2023-12-05T05:42:48.717Z,2.82
2023-12-05T05:45:19.102Z,2.88
2023-12-05T05:47:51.006Z,2.94
2023-12-05T05:50:21.089Z,2.69
2023-12-05T05:52:48.399Z,2.75
2023-12-05T05:55:15.512Z,2.85
2023-12-05T05:57:42.798Z,2.84
2023-12-05T06:00:12.463Z,2.82
2023-12-05T06:02:50.841Z,2.78
2023-12-05T06:05:18.118Z,2.86
2023-12-05T06:07:45.552Z,2.83
2023-12-05T06:10:19.021Z,2.80
2023-12-05T06:12:50.525Z,2.69
2023-12-05T06:15:18.238Z,2.80
2023-12-05T06:17:45.531Z,2.73
2023-12-05T06:20:12.760Z,2.82
2023-12-05T06:22:39.818Z,2.74
2023-12-05T06:25:07.305Z,2.78
2023-12-05T06:27:34.605Z,2.87
2023-12-05T06:30:10.034Z,2.86
2023-12-05T06:32:44.951Z,2.79
2023-12-05T06:35:12.310Z,2.81
2023-12-05T06:37:39.466Z,2.71
2023-12-05T06:40:07.329Z,2.62
2023-12-05T06:42:35.658Z,2.64
2023-12-05T06:45:06.224Z,2.63
2023-12-05T06:47:33.950Z,2.68
2023-12-05T06:50:06.802Z,2.55
2023-12-05T06:52:35.247Z,2.69
2023-12-05T06:55:02.584Z,2.61
2023-12-05T06:57:33.237Z,2.60
2023-12-05T07:00:00.853Z,2.60
2023-12-05T07:02:28.284Z,2.58
2023-12-05T07:04:59.331Z,2.52
2023-12-05T07:07:27.063Z,2.62
2023-12-05T07:09:55.141Z,2.58
2023-12-05T07:12:25.662Z,2.70
2023-12-05T07:14:53.010Z,2.68
2023-12-05T07:17:20.084Z,2.69
2023-12-05T07:19:47.165Z,2.68
2023-12-05T07:22:14.373Z,2.75
2023-12-05T07:24:42.772Z,2.71
2023-12-05T07:27:10.676Z,2.62
2023-12-05T07:29:41.764Z,2.67
2023-12-05T07:32:09.332Z,2.80
2023-12-05T07:34:37.730Z,2.80
2023-12-05T07:37:04.932Z,2.87
2023-12-05T07:39:33.735Z,2.88
2023-12-05T07:42:01.526Z,2.98
2023-12-05T07:44:29.277Z,2.92
2023-12-05T07:46:57.731Z,2.93
2023-12-05T07:49:25.149Z,2.94
2023-12-05T07:51:53.201Z,3.12
2023-12-05T07:54:27.472Z,3.01
2023-12-05T07:56:56.290Z,3.04
2023-12-05T07:59:24.527Z,3.03
2023-12-05T08:01:51.580Z,3.08
2023-12-05T08:04:18.764Z,3.04
2023-12-05T08:06:53.182Z,2.96
2023-12-05T08:09:20.232Z,3.13
2023-12-05T08:11:47.431Z,3.08
2023-12-05T08:14:14.548Z,3.12
2023-12-05T08:16:43.668Z,3.21
2023-12-05T08:19:11.479Z,3.10
2023-12-05T08:21:40.140Z,3.17
2023-12-05T08:24:08.044Z,3.37
2023-12-05T08:26:35.058Z,3.20
2023-12-05T08:29:02.903Z,3.22
2023-12-05T08:31:30.133Z,3.17
2023-12-05T08:33:58.053Z,3.27
2023-12-05T08:36:25.452Z,3.30
2023-12-05T08:38:52.536Z,3.30
2023-12-05T08:41:20.778Z,3.33
2023-12-05T08:43:48.595Z,3.47
2023-12-05T08:46:17.224Z,3.39
2023-12-05T08:48:44.357Z,3.33
2023-12-05T08:51:12.308Z,3.28
2023-12-05T08:53:40.266Z,3.28
2023-12-05T08:56:08.143Z,3.38
2023-12-05T08:58:35.434Z,3.34
2023-12-05T09:01:02.756Z,3.35
2023-12-05T09:03:30.800Z,3.39
2023-12-05T09:05:58.266Z,3.36
2023-12-05T09:08:33.273Z,3.47
2023-12-05T09:11:02.562Z,3.68
2023-12-05T09:13:29.954Z,3.51
2023-12-05T09:15:57.390Z,3.57
2023-12-05T09:18:24.529Z,3.52
2023-12-05T09:20:51.769Z,3.41
2023-12-05T09:23:19.730Z,3.50
2023-12-05T09:25:46.956Z,3.52
2023-12-05T09:28:15.478Z,3.48
2023-12-05T09:30:42.599Z,3.37
2023-12-05T09:33:09.819Z,3.30
2023-12-05T09:35:37.006Z,3.34
2023-12-05T09:38:04.545Z,3.26
2023-12-05T09:40:33.299Z,3.30
2023-12-05T09:43:02.307Z,3.36
2023-12-05T09:45:38.095Z,3.46
2023-12-05T09:48:10.362Z,3.33
2023-12-05T09:50:38.562Z,3.30
2023-12-05T09:53:11.087Z,3.44
2023-12-05T09:55:39.087Z,3.54
2023-12-05T09:58:13.161Z,3.53
2023-12-05T10:00:41.666Z,3.56
2023-12-05T10:03:15.193Z,3.56
2023-12-05T10:05:43.965Z,3.56
2023-12-05T10:08:12.817Z,3.66
2023-12-05T10:10:42.399Z,3.82
2023-12-05T10:13:11.126Z,3.83
2023-12-05T10:15:41.312Z,3.87
2023-12-05T10:18:13.834Z,3.81
2023-12-05T10:20:43.846Z,3.79
2023-12-05T10:23:18.156Z,3.78
2023-12-05T10:25:45.585Z,3.79
2023-12-05T10:28:13.926Z,3.73
2023-12-05T10:30:41.373Z,3.75
2023-12-05T10:33:14.847Z,3.80
2023-12-05T10:35:44.305Z,3.93
2023-12-05T10:38:19.289Z,3.83
2023-12-05T10:40:57.186Z,3.83
2023-12-05T10:43:25.988Z,3.87
2023-12-05T10:46:01.487Z,3.70
2023-12-05T10:48:32.284Z,3.81
2023-12-05T10:50:59.786Z,3.81
2023-12-05T10:53:29.195Z,3.82
2023-12-05T10:55:56.253Z,3.81
2023-12-05T10:58:23.492Z,3.89
2023-12-05T11:00:54.074Z,3.91
2023-12-05T11:03:24.928Z,3.92
2023-12-05T11:05:55.392Z,3.97
2023-12-05T11:08:23.403Z,4.09
2023-12-05T11:10:53.365Z,4.09
2023-12-05T11:13:21.773Z,4.15
2023-12-05T11:15:51.428Z,4.15
2023-12-05T11:18:53.669Z,4.05
2023-12-05T11:21:54.826Z,4.11
2023-12-05T11:24:36.612Z,4.13
2023-12-05T11:27:28.838Z,4.04
2023-12-05T11:30:07.350Z,4.18
2023-12-05T11:32:48.532Z,4.12
2023-12-05T11:35:25.696Z,4.11
2023-12-05T11:38:20.913Z,4.24
2023-12-05T11:41:15.646Z,4.31
2023-12-05T11:44:06.190Z,4.33
2023-12-05T11:46:38.013Z,4.32
2023-12-05T11:49:08.489Z,4.36
2023-12-05T11:51:37.472Z,4.24
2023-12-05T11:54:07.718Z,4.35
2023-12-05T11:56:34.946Z,4.25
2023-12-05T11:59:21.852Z,4.23
2023-12-05T12:01:50.723Z,4.22
2023-12-05T12:04:23.844Z,4.23
2023-12-05T12:06:51.939Z,4.35
2023-12-05T12:09:22.000Z,4.40
2023-12-05T12:11:52.080Z,4.32
2023-12-05T12:14:20.871Z,4.33
2023-12-05T12:16:50.304Z,4.38
2023-12-05T12:19:17.967Z,4.46
2023-12-05T12:21:46.729Z,4.38
2023-12-05T12:24:25.952Z,4.45
2023-12-05T12:27:00.472Z,4.42
2023-12-05T12:29:27.981Z,4.49
2023-12-05T12:32:15.447Z,4.55
2023-12-05T12:34:45.682Z,4.60
2023-12-05T12:37:20.990Z,4.51
2023-12-05T12:39:50.985Z,4.48
2023-12-05T12:42:19.060Z,4.58
2023-12-05T12:44:46.289Z,4.52
2023-12-05T12:47:17.414Z,4.51
2023-12-05T12:49:48.710Z,4.65
2023-12-05T12:52:16.121Z,4.70
2023-12-05T12:54:58.227Z,4.69
2023-12-05T12:57:25.307Z,4.63
2023-12-05T13:00:29.976Z,4.69
2023-12-05T13:03:00.634Z,4.70
2023-12-05T13:05:42.202Z,4.75
2023-12-05T13:08:10.175Z,4.59
2023-12-05T13:10:38.622Z,4.68
2023-12-05T13:13:06.112Z,4.65
2023-12-05T13:15:46.008Z,4.74
2023-12-05T13:18:14.343Z,4.71
2023-12-05T13:20:54.059Z,4.78
2023-12-05T13:23:24.981Z,4.64
2023-12-05T13:25:52.378Z,4.57
2023-12-05T13:28:27.561Z,4.63
2023-12-05T13:31:03.048Z,4.66
2023-12-05T13:33:30.293Z,4.77
2023-12-05T13:35:57.676Z,4.82
2023-12-05T13:38:25.577Z,4.87
2023-12-05T13:40:52.798Z,4.92
2023-12-05T13:43:19.848Z,4.97
2023-12-05T13:45:49.696Z,4.88
2023-12-05T13:48:28.416Z,4.86
2023-12-05T13:50:58.406Z,4.84
2023-12-05T13:53:25.587Z,4.81
2023-12-05T13:55:52.723Z,4.71
2023-12-05T13:58:19.803Z,4.81
2023-12-05T14:00:46.965Z,4.92
2023-12-05T14:03:20.793Z,4.92
2023-12-05T14:05:49.499Z,4.82
2023-12-05T14:08:16.937Z,4.90
2023-12-05T14:10:44.023Z,4.86
2023-12-05T14:13:11.434Z,4.77
2023-12-05T14:15:38.812Z,4.81
2023-12-05T14:18:10.383Z,4.92
2023-12-05T14:20:37.662Z,4.94
2023-12-05T14:23:05.630Z,4.96
2023-12-05T14:25:32.966Z,5.02
2023-12-05T14:28:00.104Z,5.15
2023-12-05T14:30:27.378Z,5.01
2023-12-05T14:32:55.874Z,4.89
2023-12-05T14:35:23.039Z,4.86
2023-12-05T14:37:50.081Z,4.85
2023-12-05T14:40:19.510Z,4.98
2023-12-05T14:42:46.648Z,5.04
2023-12-05T14:45:14.030Z,4.95
2023-12-05T14:47:41.126Z,4.93
2023-12-05T14:50:10.579Z,5.08
2023-12-05T14:52:38.435Z,5.14
2023-12-05T14:55:06.033Z,5.11
2023-12-05T14:57:33.207Z,5.03
2023-12-05T15:00:00.477Z,5.01
2023-12-05T15:02:27.672Z,4.99
2023-12-05T15:04:57.167Z,5.05
2023-12-05T15:07:25.141Z,4.95
2023-12-05T15:09:52.138Z,4.94
2023-12-05T15:12:19.528Z,4.93
2023-12-05T15:14:46.794Z,5.02
2023-12-05T15:17:15.015Z,4.96
2023-12-05T15:20:17.307Z,5.01
2023-12-05T15:22:36.698Z,4.99
2023-12-05T15:25:05.809Z,5.16
2023-12-05T15:27:34.296Z,5.17
2023-12-05T15:30:04.396Z,4.97
2023-12-05T15:32:31.865Z,5.07
2023-12-05T15:34:59.360Z,5.08
2023-12-05T15:37:30.542Z,5.14
2023-12-05T15:39:58.309Z,5.07
2023-12-05T15:42:25.861Z,5.19
2023-12-05T15:44:54.882Z,5.14
2023-12-05T15:47:25.068Z,5.09
2023-12-05T15:49:53.806Z,4.98
2023-12-05T15:52:20.905Z,5.07
2023-12-05T15:54:48.153Z,5.10
2023-12-05T15:57:15.054Z,5.04
2023-12-05T15:59:52.875Z,5.20
2023-12-05T16:02:23.318Z,5.18
2023-12-05T16:04:50.622Z,5.19
2023-12-05T16:07:17.919Z,5.29
2023-12-05T16:09:45.203Z,5.19
2023-12-05T16:12:12.439Z,5.07
2023-12-05T16:14:43.140Z,5.08
2023-12-05T16:17:13.703Z,5.13
2023-12-05T16:19:41.158Z,5.18
2023-12-05T16:22:16.778Z,5.17
2023-12-05T16:24:43.944Z,5.18
2023-12-05T16:27:11.146Z,5.24
2023-12-05T16:29:38.265Z,5.18
2023-12-05T16:32:06.513Z,5.09
2023-12-05T16:34:34.177Z,5.21
2023-12-05T16:37:01.200Z,5.17
2023-12-05T16:39:28.655Z,5.10
2023-12-05T16:41:55.811Z,5.12
2023-12-05T16:44:23.074Z,5.12
2023-12-05T16:46:56.159Z,5.15
2023-12-05T16:49:23.430Z,5.17
2023-12-05T16:51:50.639Z,5.28
2023-12-05T16:54:19.605Z,5.22
2023-12-05T16:56:46.705Z,5.21
2023-12-05T16:59:24.915Z,5.14
2023-12-05T17:01:56.526Z,5.19
2023-12-05T17:04:27.444Z,5.18
2023-12-05T17:06:56.271Z,5.15
2023-12-05T17:09:24.144Z,5.33
2023-12-05T17:11:52.138Z,5.27
2023-12-05T17:14:19.281Z,5.20
2023-12-05T17:16:46.715Z,5.32
2023-12-05T17:19:18.303Z,5.29
2023-12-05T17:21:45.617Z,5.35
2023-12-05T17:24:17.475Z,5.34
2023-12-05T17:26:44.929Z,5.33
2023-12-05T17:29:15.575Z,5.24
2023-12-05T17:31:42.851Z,5.30
2023-12-05T17:34:10.080Z,5.26
2023-12-05T17:36:37.878Z,5.41
2023-12-05T17:39:05.133Z,5.31
2023-12-05T17:41:33.602Z,5.32
2023-12-05T17:44:01.121Z,5.42
2023-12-05T17:46:28.243Z,5.30
2023-12-05T17:49:00.754Z,5.24
2023-12-05T17:51:28.480Z,5.28
2023-12-05T17:53:56.832Z,5.25
2023-12-05T17:56:23.957Z,5.31
2023-12-05T17:58:51.048Z,5.34
2023-12-05T18:01:18.628Z,5.26
2023-12-05T18:03:46.137Z,5.23
2023-12-05T18:06:14.642Z,5.17
2023-12-05T18:08:46.008Z,5.27
2023-12-05T18:11:13.150Z,5.31
2023-12-05T18:13:40.313Z,5.38
2023-12-05T18:16:07.800Z,5.35
2023-12-05T18:18:35.542Z,5.21
2023-12-05T18:21:03.189Z,5.36
2023-12-05T18:23:31.354Z,5.41
2023-12-05T18:25:58.570Z,5.33
2023-12-05T18:28:27.352Z,5.29
2023-12-05T18:30:55.168Z,5.30
2023-12-05T18:33:22.582Z,5.37
2023-12-05T18:35:50.064Z,5.36
2023-12-05T18:38:17.138Z,5.45
2023-12-05T18:40:47.765Z,5.53
2023-12-05T18:43:15.043Z,5.37
2023-12-05T18:45:43.785Z,5.54
2023-12-05T18:48:14.780Z,5.55
2023-12-05T18:50:43.000Z,5.37
2023-12-05T18:53:10.100Z,5.31
2023-12-05T18:55:37.354Z,5.52
2023-12-05T18:58:05.264Z,5.41
2023-12-05T19:00:36.081Z,5.52
2023-12-05T19:03:04.818Z,5.39
2023-12-05T19:05:31.930Z,5.52
2023-12-05T19:08:02.643Z,5.48
2023-12-05T19:10:29.664Z,5.51
2023-12-05T19:12:59.311Z,5.46
2023-12-05T19:15:27.698Z,5.45
2023-12-05T19:18:00.087Z,5.38
2023-12-05T19:20:31.226Z,5.45
2023-12-05T19:22:58.676Z,5.37
2023-12-05T19:25:25.713Z,5.51
2023-12-05T19:27:55.561Z,5.56
2023-12-05T19:30:22.777Z,5.50
2023-12-05T19:32:51.668Z,5.52
2023-12-05T19:35:18.852Z,5.50
2023-12-05T19:37:47.332Z,5.50
2023-12-05T19:40:14.861Z,5.56
2023-12-05T19:42:43.671Z,5.40
2023-12-05T19:45:11.042Z,5.46
2023-12-05T19:47:38.761Z,5.50
2023-12-05T19:50:07.002Z,5.45
2023-12-05T19:52:34.561Z,5.53
2023-12-05T19:55:01.767Z,5.41
2023-12-05T19:57:29.094Z,5.44
2023-12-05T19:59:56.397Z,5.51
2023-12-05T20:02:23.597Z,5.29
2023-12-05T20:04:58.404Z,5.44
2023-12-05T20:07:33.894Z,5.43
2023-12-05T20:10:02.042Z,5.55
2023-12-05T20:12:29.719Z,5.42
2023-12-05T20:15:01.099Z,5.36
2023-12-05T20:17:29.736Z,5.31
2023-12-05T20:20:04.984Z,5.38
2023-12-05T20:22:36.147Z,5.49
2023-12-05T20:25:08.519Z,5.47
2023-12-05T20:27:36.721Z,5.47
2023-12-05T20:30:05.404Z,5.39
2023-12-05T20:32:33.554Z,5.43
2023-12-05T20:35:05.081Z,5.41
2023-12-05T20:37:34.909Z,5.57
2023-12-05T20:40:03.061Z,5.51
2023-12-05T20:42:34.424Z,5.54
2023-12-05T20:45:03.227Z,5.38
2023-12-05T20:47:30.354Z,5.38
2023-12-05T20:50:00.788Z,5.41
2023-12-05T20:52:34.099Z,5.52
2023-12-05T20:55:04.084Z,5.54
2023-12-05T20:57:31.268Z,5.49
2023-12-05T20:59:58.546Z,5.41
2023-12-05T21:02:28.696Z,5.30
2023-12-05T21:04:55.863Z,5.46
2023-12-05T21:07:23.685Z,5.39
2023-12-05T21:09:51.037Z,5.47
2023-12-05T21:12:19.199Z,5.53
2023-12-05T21:14:46.901Z,5.58
2023-12-05T21:17:14.578Z,5.73
2023-12-05T21:19:44.607Z,5.59
2023-12-05T21:22:13.079Z,5.58
2023-12-05T21:24:49.101Z,5.66
2023-12-05T21:27:18.327Z,5.45
2023-12-05T21:29:46.177Z,5.50
2023-12-05T21:32:22.226Z,5.44
2023-12-05T21:34:49.575Z,5.46
2023-12-05T21:37:16.693Z,5.47
2023-12-05T21:39:43.793Z,5.63
2023-12-05T21:42:11.274Z,5.55
2023-12-05T21:44:45.165Z,5.48
2023-12-05T21:47:13.922Z,5.48
2023-12-05T21:49:40.981Z,5.69
2023-12-05T21:52:08.537Z,5.69
2023-12-05T21:54:36.743Z,5.63
2023-12-05T21:57:07.543Z,5.59
2023-12-05T21:59:34.656Z,5.72
2023-12-05T22:02:02.723Z,5.69
2023-12-05T22:04:33.960Z,5.66
2023-12-05T22:07:08.113Z,5.74
2023-12-05T22:09:36.551Z,5.59
2023-12-05T22:12:04.866Z,5.66
2023-12-05T22:14:32.234Z,5.70
2023-12-05T22:17:06.408Z,5.63
2023-12-05T22:19:40.491Z,5.61
2023-12-05T22:22:08.230Z,5.65
2023-12-05T22:24:35.701Z,5.55
2023-12-05T22:27:03.437Z,5.48
2023-12-05T22:29:30.622Z,5.47
2023-12-05T22:31:58.933Z,5.45
2023-12-05T22:34:26.128Z,5.40
2023-12-05T22:36:54.883Z,5.38
2023-12-05T22:39:23.188Z,5.36
2023-12-05T22:41:50.571Z,5.41
2023-12-05T22:44:18.554Z,5.43
2023-12-05T22:46:45.766Z,5.40
2023-12-05T22:49:16.157Z,5.55
2023-12-05T22:51:43.557Z,5.56
2023-12-05T22:54:16.347Z,5.38
2023-12-05T22:56:44.429Z,5.36
2023-12-05T22:59:11.529Z,5.33
2023-12-05T23:01:38.604Z,5.41
2023-12-05T23:04:05.893Z,5.39
2023-12-05T23:06:41.542Z,5.39
2023-12-05T23:09:15.623Z,5.30
2023-12-05T23:11:45.674Z,5.26
2023-12-05T23:14:13.402Z,5.24
2023-12-05T23:16:40.454Z,5.20
2023-12-05T23:19:14.870Z,5.23
2023-12-05T23:21:42.233Z,5.21
2023-12-05T23:24:09.657Z,5.32
2023-12-05T23:26:36.795Z,5.33
2023-12-05T23:29:03.883Z,5.36
2023-12-05T23:31:30.891Z,5.29
2023-12-05T23:33:58.193Z,5.36
2023-12-05T23:36:25.587Z,5.32
2023-12-05T23:38:52.953Z,5.20
2023-12-05T23:41:27.991Z,5.23
2023-12-05T23:43:57.795Z,5.10
2023-12-05T23:46:25.673Z,5.12
2023-12-05T23:48:54.461Z,5.12
2023-12-05T23:51:21.604Z,5.26
2023-12-05T23:53:48.692Z,5.33
2023-12-05T23:56:23.365Z,5.34
2023-12-05T23:58:51.151Z,5.31
